Jared Hunt 3:00:00 SkiErg

36,004

Meters

3:00:00.0

Time

2:29.9

Pace

1994

Calories

136

Heart Rate

Average Watts104
Calories Per Hour664
Stroke Rate42
Stroke Count7660
Drag Factor70

August 28, 2026 15:02:23

Workout
SkiErg

Workout Type
Fixed Time

Verified
Yes

Entered
ErgData Android

Splits

Time Meters Pace Watts Cal/Hr Cal S/M
3:00:00.0 36,004 2:29.9 104 664 1994 42 136
5:00.0 1,035 2:24.9 115 684 57 43 124
10:00.0 1,039 2:24.3 116 696 58 42 132
15:00.0 1,034 2:25.0 115 684 57 42 130
20:00.0 1,028 2:25.9 113 684 57 42 135
25:00.0 1,023 2:26.6 111 672 56 42 129
30:00.0 1,044 2:23.6 118 696 58 42 136
35:00.0 1,036 2:24.7 115 696 58 42 133
40:00.0 451 5:32.5 10 288 24 17 103
45:00.0 748 3:20.5 43 480 40 31 133
50:00.0 1,031 2:25.4 114 684 57 42 133
55:00.0 1,041 2:24.0 117 696 58 41 133
1:00:00.0 1,022 2:26.7 111 672 56 42 134
1:05:00.0 1,048 2:23.1 119 708 59 46 143
1:10:00.0 1,043 2:23.8 118 696 58 43 139
1:15:00.0 1,077 2:19.2 130 744 62 43 144
1:20:00.0 1,035 2:24.9 115 684 57 47 140
1:25:00.0 1,047 2:23.2 119 708 59 43 144
1:30:00.0 1,041 2:24.0 117 696 58 43 145
1:35:00.0 855 2:55.4 65 552 46 36 139
1:40:00.0 1,029 2:25.7 113 684 57 43 144
1:45:00.0 1,011 2:28.3 107 660 55 50 140
1:50:00.0 1,036 2:24.7 115 696 58 42 142
1:55:00.0 1,046 2:23.4 119 708 59 43 139
2:00:00.0 1,019 2:27.2 110 672 56 43 140
2:05:00.0 861 2:54.2 66 552 46 35 140
2:10:00.0 1,038 2:24.5 116 696 58 43 140
2:15:00.0 1,035 2:24.9 115 684 57 49 139
2:20:00.0 1,034 2:25.0 115 684 57 45 137
2:25:00.0 982 2:32.7 98 648 54 40 137
2:30:00.0 1,043 2:23.8 118 696 58 44 137
2:35:00.0 1,037 2:24.6 116 696 58 52 141
2:40:00.0 1,042 2:23.9 117 696 58 45 142
2:45:00.0 1,038 2:24.5 116 696 58 53 143
2:50:00.0 1,018 2:27.3 109 672 56 43 138
2:55:00.0 1,032 2:25.3 114 684 57 48 140
3:00:00.0 1,025 2:26.3 112 684 57 46 139

Click and drag on the graph to zoom in on a section.

Workout Graph

Loading data.